sensor_id;sensor_type;location;lat;lon;timestamp;P1;durP1;ratioP1;P2;durP2;ratioP2
16197;SDS011;8206;51.440;6.914;2024-03-06T00:02:25;5.13;;;4.70;;
16197;SDS011;8206;51.440;6.914;2024-03-06T00:04:53;6.97;;;6.47;;
16197;SDS011;8206;51.440;6.914;2024-03-06T00:07:20;6.77;;;6.33;;
16197;SDS011;8206;51.440;6.914;2024-03-06T00:09:47;6.73;;;6.17;;
16197;SDS011;8206;51.440;6.914;2024-03-06T00:12:13;5.60;;;5.10;;
16197;SDS011;8206;51.440;6.914;2024-03-06T00:14:40;4.67;;;4.43;;
16197;SDS011;8206;51.440;6.914;2024-03-06T00:17:07;16.00;;;8.27;;
16197;SDS011;8206;51.440;6.914;2024-03-06T00:19:34;6.97;;;5.73;;
16197;SDS011;8206;51.440;6.914;2024-03-06T00:22:02;9.63;;;4.97;;
16197;SDS011;8206;51.440;6.914;2024-03-06T00:24:29;8.87;;;5.00;;
16197;SDS011;8206;51.440;6.914;2024-03-06T00:26:57;5.47;;;5.07;;
16197;SDS011;8206;51.440;6.914;2024-03-06T00:29:24;5.40;;;5.07;;
16197;SDS011;8206;51.440;6.914;2024-03-06T00:31:51;5.27;;;4.77;;
16197;SDS011;8206;51.440;6.914;2024-03-06T00:34:17;5.43;;;5.07;;
16197;SDS011;8206;51.440;6.914;2024-03-06T00:36:44;4.97;;;4.77;;
16197;SDS011;8206;51.440;6.914;2024-03-06T00:39:12;4.43;;;4.03;;
16197;SDS011;8206;51.440;6.914;2024-03-06T00:41:39;3.27;;;3.17;;
16197;SDS011;8206;51.440;6.914;2024-03-06T00:44:06;4.97;;;4.20;;
16197;SDS011;8206;51.440;6.914;2024-03-06T00:46:33;4.40;;;4.10;;
16197;SDS011;8206;51.440;6.914;2024-03-06T00:49:00;16.50;;;5.03;;
16197;SDS011;8206;51.440;6.914;2024-03-06T00:51:27;4.07;;;3.73;;
16197;SDS011;8206;51.440;6.914;2024-03-06T00:53:53;10.10;;;5.73;;
16197;SDS011;8206;51.440;6.914;2024-03-06T00:56:21;5.63;;;5.20;;
16197;SDS011;8206;51.440;6.914;2024-03-06T00:58:48;2.83;;;2.63;;
16197;SDS011;8206;51.440;6.914;2024-03-06T01:01:15;9.20;;;4.50;;
16197;SDS011;8206;51.440;6.914;2024-03-06T01:03:43;3.53;;;3.37;;
16197;SDS011;8206;51.440;6.914;2024-03-06T01:06:10;4.97;;;4.57;;
16197;SDS011;8206;51.440;6.914;2024-03-06T01:08:37;8.23;;;4.37;;
16197;SDS011;8206;51.440;6.914;2024-03-06T01:11:03;4.83;;;4.43;;
16197;SDS011;8206;51.440;6.914;2024-03-06T01:13:32;12.23;;;4.57;;
16197;SDS011;8206;51.440;6.914;2024-03-06T01:15:58;7.17;;;6.53;;
16197;SDS011;8206;51.440;6.914;2024-03-06T01:18:25;8.53;;;5.53;;
16197;SDS011;8206;51.440;6.914;2024-03-06T01:20:52;8.33;;;4.60;;
16197;SDS011;8206;51.440;6.914;2024-03-06T01:23:18;5.10;;;4.80;;
16197;SDS011;8206;51.440;6.914;2024-03-06T01:25:45;9.93;;;7.50;;
16197;SDS011;8206;51.440;6.914;2024-03-06T01:28:12;8.63;;;6.43;;
16197;SDS011;8206;51.440;6.914;2024-03-06T01:30:40;7.10;;;5.50;;
16197;SDS011;8206;51.440;6.914;2024-03-06T01:33:06;11.00;;;6.27;;
16197;SDS011;8206;51.440;6.914;2024-03-06T01:35:33;6.77;;;5.30;;
16197;SDS011;8206;51.440;6.914;2024-03-06T01:38:00;3.67;;;3.40;;
16197;SDS011;8206;51.440;6.914;2024-03-06T01:40:26;4.57;;;4.37;;
16197;SDS011;8206;51.440;6.914;2024-03-06T01:42:54;9.37;;;5.10;;
16197;SDS011;8206;51.440;6.914;2024-03-06T01:45:20;6.80;;;4.33;;
16197;SDS011;8206;51.440;6.914;2024-03-06T01:47:49;4.80;;;4.50;;
16197;SDS011;8206;51.440;6.914;2024-03-06T01:50:15;8.20;;;7.17;;
16197;SDS011;8206;51.440;6.914;2024-03-06T01:52:42;4.17;;;3.93;;
16197;SDS011;8206;51.440;6.914;2024-03-06T01:55:10;4.93;;;4.50;;
16197;SDS011;8206;51.440;6.914;2024-03-06T01:57:38;4.60;;;4.30;;
16197;SDS011;8206;51.440;6.914;2024-03-06T02:00:06;5.70;;;3.70;;
16197;SDS011;8206;51.440;6.914;2024-03-06T02:02:38;6.50;;;5.20;;
16197;SDS011;8206;51.440;6.914;2024-03-06T02:05:07;6.57;;;6.07;;
16197;SDS011;8206;51.440;6.914;2024-03-06T02:07:34;4.53;;;4.03;;
16197;SDS011;8206;51.440;6.914;2024-03-06T02:10:04;5.97;;;4.23;;
16197;SDS011;8206;51.440;6.914;2024-03-06T02:12:32;5.73;;;3.67;;
16197;SDS011;8206;51.440;6.914;2024-03-06T02:14:59;6.97;;;6.20;;
16197;SDS011;8206;51.440;6.914;2024-03-06T02:17:28;6.03;;;5.60;;
16197;SDS011;8206;51.440;6.914;2024-03-06T02:19:55;4.87;;;3.97;;
16197;SDS011;8206;51.440;6.914;2024-03-06T02:22:24;5.87;;;5.37;;
16197;SDS011;8206;51.440;6.914;2024-03-06T02:24:51;6.20;;;5.63;;
16197;SDS011;8206;51.440;6.914;2024-03-06T02:27:17;14.43;;;4.63;;
16197;SDS011;8206;51.440;6.914;2024-03-06T02:29:44;6.20;;;5.53;;
16197;SDS011;8206;51.440;6.914;2024-03-06T02:32:12;5.13;;;4.73;;
16197;SDS011;8206;51.440;6.914;2024-03-06T02:34:39;21.77;;;7.30;;
16197;SDS011;8206;51.440;6.914;2024-03-06T02:37:06;6.90;;;5.90;;
16197;SDS011;8206;51.440;6.914;2024-03-06T02:39:34;7.93;;;6.90;;
16197;SDS011;8206;51.440;6.914;2024-03-06T02:42:01;5.37;;;4.73;;
16197;SDS011;8206;51.440;6.914;2024-03-06T02:44:28;5.93;;;5.17;;
16197;SDS011;8206;51.440;6.914;2024-03-06T02:46:55;4.90;;;4.40;;
16197;SDS011;8206;51.440;6.914;2024-03-06T02:49:22;5.93;;;5.53;;
16197;SDS011;8206;51.440;6.914;2024-03-06T02:51:48;7.70;;;5.60;;
16197;SDS011;8206;51.440;6.914;2024-03-06T02:54:15;8.20;;;5.50;;
16197;SDS011;8206;51.440;6.914;2024-03-06T02:56:43;6.50;;;4.97;;
16197;SDS011;8206;51.440;6.914;2024-03-06T02:59:10;5.93;;;5.57;;
16197;SDS011;8206;51.440;6.914;2024-03-06T03:01:36;5.67;;;4.80;;
16197;SDS011;8206;51.440;6.914;2024-03-06T03:04:03;10.70;;;5.53;;
16197;SDS011;8206;51.440;6.914;2024-03-06T03:06:31;11.07;;;4.40;;
16197;SDS011;8206;51.440;6.914;2024-03-06T03:08:58;12.83;;;6.10;;
16197;SDS011;8206;51.440;6.914;2024-03-06T03:11:25;10.10;;;6.67;;
16197;SDS011;8206;51.440;6.914;2024-03-06T03:13:53;6.80;;;6.17;;
16197;SDS011;8206;51.440;6.914;2024-03-06T03:16:19;6.47;;;5.17;;
16197;SDS011;8206;51.440;6.914;2024-03-06T03:18:46;4.77;;;4.47;;
16197;SDS011;8206;51.440;6.914;2024-03-06T03:21:13;8.33;;;7.40;;
16197;SDS011;8206;51.440;6.914;2024-03-06T03:23:40;8.20;;;6.17;;
16197;SDS011;8206;51.440;6.914;2024-03-06T03:26:07;7.47;;;6.87;;
16197;SDS011;8206;51.440;6.914;2024-03-06T03:28:37;10.30;;;6.73;;
16197;SDS011;8206;51.440;6.914;2024-03-06T03:31:06;11.10;;;4.30;;
16197;SDS011;8206;51.440;6.914;2024-03-06T03:33:34;5.87;;;5.33;;
16197;SDS011;8206;51.440;6.914;2024-03-06T03:36:03;13.27;;;7.97;;
16197;SDS011;8206;51.440;6.914;2024-03-06T03:38:30;11.67;;;7.73;;
16197;SDS011;8206;51.440;6.914;2024-03-06T03:40:57;15.17;;;8.33;;
16197;SDS011;8206;51.440;6.914;2024-03-06T03:43:24;7.03;;;6.30;;
16197;SDS011;8206;51.440;6.914;2024-03-06T03:45:51;5.17;;;4.77;;
16197;SDS011;8206;51.440;6.914;2024-03-06T03:48:19;7.33;;;6.63;;
16197;SDS011;8206;51.440;6.914;2024-03-06T03:50:45;10.50;;;9.80;;
16197;SDS011;8206;51.440;6.914;2024-03-06T03:53:12;10.17;;;5.97;;
16197;SDS011;8206;51.440;6.914;2024-03-06T03:55:39;4.90;;;4.47;;
16197;SDS011;8206;51.440;6.914;2024-03-06T03:58:05;5.23;;;4.77;;
16197;SDS011;8206;51.440;6.914;2024-03-06T04:00:32;5.63;;;5.17;;
16197;SDS011;8206;51.440;6.914;2024-03-06T04:02:59;3.20;;;3.10;;
16197;SDS011;8206;51.440;6.914;2024-03-06T04:05:27;6.33;;;5.73;;
16197;SDS011;8206;51.440;6.914;2024-03-06T04:07:54;4.07;;;3.87;;
16197;SDS011;8206;51.440;6.914;2024-03-06T04:10:20;13.73;;;8.20;;
16197;SDS011;8206;51.440;6.914;2024-03-06T04:12:47;5.67;;;5.17;;
16197;SDS011;8206;51.440;6.914;2024-03-06T04:15:14;8.13;;;7.10;;
16197;SDS011;8206;51.440;6.914;2024-03-06T04:17:41;6.43;;;5.93;;
16197;SDS011;8206;51.440;6.914;2024-03-06T04:20:08;4.40;;;4.00;;
16197;SDS011;8206;51.440;6.914;2024-03-06T04:22:38;11.73;;;7.37;;
16197;SDS011;8206;51.440;6.914;2024-03-06T04:25:05;6.67;;;6.07;;
16197;SDS011;8206;51.440;6.914;2024-03-06T04:27:32;5.60;;;5.13;;
16197;SDS011;8206;51.440;6.914;2024-03-06T04:29:59;5.57;;;5.23;;
16197;SDS011;8206;51.440;6.914;2024-03-06T04:32:25;7.40;;;6.73;;
16197;SDS011;8206;51.440;6.914;2024-03-06T04:34:52;4.53;;;4.23;;
16197;SDS011;8206;51.440;6.914;2024-03-06T04:37:21;6.10;;;3.37;;
16197;SDS011;8206;51.440;6.914;2024-03-06T04:39:49;6.43;;;5.60;;
16197;SDS011;8206;51.440;6.914;2024-03-06T04:42:15;4.57;;;4.30;;
16197;SDS011;8206;51.440;6.914;2024-03-06T04:44:42;5.20;;;4.33;;
16197;SDS011;8206;51.440;6.914;2024-03-06T04:47:09;5.97;;;5.57;;
16197;SDS011;8206;51.440;6.914;2024-03-06T04:49:35;22.47;;;7.50;;
16197;SDS011;8206;51.440;6.914;2024-03-06T04:52:02;6.97;;;6.47;;
16197;SDS011;8206;51.440;6.914;2024-03-06T04:54:29;6.03;;;5.27;;
16197;SDS011;8206;51.440;6.914;2024-03-06T04:56:57;6.17;;;4.77;;
16197;SDS011;8206;51.440;6.914;2024-03-06T04:59:24;8.13;;;7.47;;
16197;SDS011;8206;51.440;6.914;2024-03-06T05:01:51;8.10;;;6.27;;
16197;SDS011;8206;51.440;6.914;2024-03-06T05:04:17;6.53;;;6.00;;
16197;SDS011;8206;51.440;6.914;2024-03-06T05:06:44;4.93;;;4.43;;
16197;SDS011;8206;51.440;6.914;2024-03-06T05:09:12;6.43;;;5.67;;
16197;SDS011;8206;51.440;6.914;2024-03-06T05:11:40;8.77;;;6.17;;
16197;SDS011;8206;51.440;6.914;2024-03-06T05:14:08;6.27;;;5.63;;
16197;SDS011;8206;51.440;6.914;2024-03-06T05:16:34;8.73;;;6.83;;
16197;SDS011;8206;51.440;6.914;2024-03-06T05:19:01;3.37;;;3.20;;
16197;SDS011;8206;51.440;6.914;2024-03-06T05:21:27;15.60;;;6.90;;
16197;SDS011;8206;51.440;6.914;2024-03-06T05:23:54;7.17;;;6.17;;
16197;SDS011;8206;51.440;6.914;2024-03-06T05:26:21;6.60;;;5.97;;
16197;SDS011;8206;51.440;6.914;2024-03-06T05:28:47;7.93;;;6.83;;
16197;SDS011;8206;51.440;6.914;2024-03-06T05:31:19;32.17;;;6.77;;
16197;SDS011;8206;51.440;6.914;2024-03-06T05:33:46;9.00;;;8.33;;
16197;SDS011;8206;51.440;6.914;2024-03-06T05:36:14;6.17;;;5.47;;
16197;SDS011;8206;51.440;6.914;2024-03-06T05:38:42;6.57;;;6.17;;
16197;SDS011;8206;51.440;6.914;2024-03-06T05:41:09;6.87;;;6.33;;
16197;SDS011;8206;51.440;6.914;2024-03-06T05:43:36;14.93;;;8.37;;
16197;SDS011;8206;51.440;6.914;2024-03-06T05:46:02;15.60;;;8.57;;
16197;SDS011;8206;51.440;6.914;2024-03-06T05:48:31;13.60;;;8.63;;
16197;SDS011;8206;51.440;6.914;2024-03-06T05:50:58;16.77;;;9.60;;
16197;SDS011;8206;51.440;6.914;2024-03-06T05:53:25;12.10;;;7.57;;
16197;SDS011;8206;51.440;6.914;2024-03-06T05:55:51;6.67;;;6.10;;
16197;SDS011;8206;51.440;6.914;2024-03-06T05:58:19;9.60;;;7.73;;
16197;SDS011;8206;51.440;6.914;2024-03-06T06:00:46;4.93;;;4.73;;
16197;SDS011;8206;51.440;6.914;2024-03-06T06:03:13;16.03;;;7.17;;
16197;SDS011;8206;51.440;6.914;2024-03-06T06:05:41;7.20;;;6.77;;
16197;SDS011;8206;51.440;6.914;2024-03-06T06:08:08;6.93;;;6.43;;
16197;SDS011;8206;51.440;6.914;2024-03-06T06:10:34;7.57;;;6.77;;
16197;SDS011;8206;51.440;6.914;2024-03-06T06:13:01;11.00;;;7.00;;
16197;SDS011;8206;51.440;6.914;2024-03-06T06:15:29;9.10;;;7.43;;
16197;SDS011;8206;51.440;6.914;2024-03-06T06:17:56;10.60;;;7.87;;
16197;SDS011;8206;51.440;6.914;2024-03-06T06:20:23;36.00;;;9.10;;
16197;SDS011;8206;51.440;6.914;2024-03-06T06:22:51;10.70;;;6.90;;
16197;SDS011;8206;51.440;6.914;2024-03-06T06:25:18;5.67;;;5.00;;
16197;SDS011;8206;51.440;6.914;2024-03-06T06:27:45;11.07;;;8.03;;
16197;SDS011;8206;51.440;6.914;2024-03-06T06:30:13;8.33;;;7.57;;
16197;SDS011;8206;51.440;6.914;2024-03-06T06:32:40;6.83;;;5.00;;
16197;SDS011;8206;51.440;6.914;2024-03-06T06:35:07;7.33;;;6.50;;
16197;SDS011;8206;51.440;6.914;2024-03-06T06:37:36;5.13;;;4.63;;
16197;SDS011;8206;51.440;6.914;2024-03-06T06:40:05;8.37;;;7.53;;
16197;SDS011;8206;51.440;6.914;2024-03-06T06:42:33;5.80;;;5.40;;
16197;SDS011;8206;51.440;6.914;2024-03-06T06:45:01;11.00;;;7.27;;
16197;SDS011;8206;51.440;6.914;2024-03-06T06:47:28;7.37;;;6.67;;
16197;SDS011;8206;51.440;6.914;2024-03-06T06:49:55;11.00;;;8.33;;
16197;SDS011;8206;51.440;6.914;2024-03-06T06:52:23;6.47;;;5.87;;
16197;SDS011;8206;51.440;6.914;2024-03-06T06:54:52;8.27;;;6.40;;
16197;SDS011;8206;51.440;6.914;2024-03-06T06:57:20;8.23;;;7.57;;
16197;SDS011;8206;51.440;6.914;2024-03-06T06:59:47;6.57;;;5.97;;
16197;SDS011;8206;51.440;6.914;2024-03-06T07:02:13;10.47;;;6.43;;
16197;SDS011;8206;51.440;6.914;2024-03-06T07:04:40;8.77;;;7.77;;
16197;SDS011;8206;51.440;6.914;2024-03-06T07:07:07;23.97;;;6.80;;
16197;SDS011;8206;51.440;6.914;2024-03-06T07:09:34;10.10;;;6.83;;
16197;SDS011;8206;51.440;6.914;2024-03-06T07:12:00;8.23;;;6.83;;
16197;SDS011;8206;51.440;6.914;2024-03-06T07:14:29;8.50;;;7.67;;
16197;SDS011;8206;51.440;6.914;2024-03-06T07:16:55;10.27;;;8.20;;
16197;SDS011;8206;51.440;6.914;2024-03-06T07:19:22;10.57;;;7.93;;
16197;SDS011;8206;51.440;6.914;2024-03-06T07:21:49;8.23;;;6.57;;
16197;SDS011;8206;51.440;6.914;2024-03-06T07:24:17;6.07;;;5.60;;
16197;SDS011;8206;51.440;6.914;2024-03-06T07:26:43;6.67;;;5.80;;
16197;SDS011;8206;51.440;6.914;2024-03-06T07:29:10;9.30;;;7.70;;
16197;SDS011;8206;51.440;6.914;2024-03-06T07:31:41;16.43;;;6.73;;
16197;SDS011;8206;51.440;6.914;2024-03-06T07:34:07;5.97;;;5.47;;
16197;SDS011;8206;51.440;6.914;2024-03-06T07:36:34;7.03;;;6.17;;
16197;SDS011;8206;51.440;6.914;2024-03-06T07:39:00;8.83;;;8.07;;
16197;SDS011;8206;51.440;6.914;2024-03-06T07:41:27;6.47;;;5.57;;
16197;SDS011;8206;51.440;6.914;2024-03-06T07:43:54;17.87;;;10.57;;
16197;SDS011;8206;51.440;6.914;2024-03-06T07:46:21;17.43;;;10.43;;
16197;SDS011;8206;51.440;6.914;2024-03-06T07:48:49;19.37;;;9.17;;
16197;SDS011;8206;51.440;6.914;2024-03-06T07:51:16;10.47;;;9.53;;
16197;SDS011;8206;51.440;6.914;2024-03-06T07:53:43;12.07;;;9.10;;
16197;SDS011;8206;51.440;6.914;2024-03-06T07:56:10;19.67;;;8.77;;
16197;SDS011;8206;51.440;6.914;2024-03-06T07:58:37;21.57;;;11.63;;
16197;SDS011;8206;51.440;6.914;2024-03-06T08:01:04;21.57;;;11.57;;
16197;SDS011;8206;51.440;6.914;2024-03-06T08:03:32;11.53;;;10.37;;
16197;SDS011;8206;51.440;6.914;2024-03-06T08:06:00;23.00;;;10.70;;
16197;SDS011;8206;51.440;6.914;2024-03-06T08:08:27;15.43;;;10.73;;
16197;SDS011;8206;51.440;6.914;2024-03-06T08:10:53;19.83;;;9.03;;
16197;SDS011;8206;51.440;6.914;2024-03-06T08:13:20;10.87;;;9.83;;
16197;SDS011;8206;51.440;6.914;2024-03-06T08:15:47;18.63;;;11.77;;
16197;SDS011;8206;51.440;6.914;2024-03-06T08:18:13;15.20;;;10.23;;
16197;SDS011;8206;51.440;6.914;2024-03-06T08:20:40;12.07;;;9.60;;
16197;SDS011;8206;51.440;6.914;2024-03-06T08:23:09;16.63;;;7.77;;
16197;SDS011;8206;51.440;6.914;2024-03-06T08:25:35;10.70;;;7.53;;
16197;SDS011;8206;51.440;6.914;2024-03-06T08:28:02;12.17;;;10.47;;
16197;SDS011;8206;51.440;6.914;2024-03-06T08:30:30;12.17;;;11.13;;
16197;SDS011;8206;51.440;6.914;2024-03-06T08:32:57;17.53;;;11.07;;
16197;SDS011;8206;51.440;6.914;2024-03-06T08:35:24;10.50;;;8.83;;
16197;SDS011;8206;51.440;6.914;2024-03-06T08:37:51;22.23;;;13.10;;
16197;SDS011;8206;51.440;6.914;2024-03-06T08:40:19;8.67;;;7.97;;
16197;SDS011;8206;51.440;6.914;2024-03-06T08:42:48;11.70;;;8.73;;
16197;SDS011;8206;51.440;6.914;2024-03-06T08:45:15;13.50;;;8.70;;
16197;SDS011;8206;51.440;6.914;2024-03-06T08:47:42;12.97;;;6.90;;
16197;SDS011;8206;51.440;6.914;2024-03-06T08:50:09;10.10;;;8.40;;
16197;SDS011;8206;51.440;6.914;2024-03-06T08:52:36;26.07;;;10.73;;
16197;SDS011;8206;51.440;6.914;2024-03-06T08:55:03;13.77;;;10.27;;
16197;SDS011;8206;51.440;6.914;2024-03-06T08:57:32;12.13;;;8.13;;
16197;SDS011;8206;51.440;6.914;2024-03-06T08:59:59;15.40;;;10.20;;
16197;SDS011;8206;51.440;6.914;2024-03-06T09:02:26;13.67;;;8.03;;
16197;SDS011;8206;51.440;6.914;2024-03-06T09:04:53;11.23;;;8.87;;
16197;SDS011;8206;51.440;6.914;2024-03-06T09:07:20;13.47;;;8.93;;
16197;SDS011;8206;51.440;6.914;2024-03-06T09:09:48;9.47;;;8.57;;
16197;SDS011;8206;51.440;6.914;2024-03-06T09:12:15;8.70;;;8.03;;
16197;SDS011;8206;51.440;6.914;2024-03-06T09:14:44;7.87;;;7.07;;
16197;SDS011;8206;51.440;6.914;2024-03-06T09:17:11;12.80;;;9.57;;
16197;SDS011;8206;51.440;6.914;2024-03-06T09:19:39;21.57;;;10.27;;
16197;SDS011;8206;51.440;6.914;2024-03-06T09:22:07;11.20;;;9.80;;
16197;SDS011;8206;51.440;6.914;2024-03-06T09:24:33;17.50;;;9.57;;
16197;SDS011;8206;51.440;6.914;2024-03-06T09:27:03;9.90;;;7.07;;
16197;SDS011;8206;51.440;6.914;2024-03-06T09:29:30;8.23;;;7.50;;
16197;SDS011;8206;51.440;6.914;2024-03-06T09:31:58;7.87;;;7.37;;
16197;SDS011;8206;51.440;6.914;2024-03-06T09:34:25;7.23;;;6.37;;
16197;SDS011;8206;51.440;6.914;2024-03-06T09:36:52;10.10;;;9.10;;
16197;SDS011;8206;51.440;6.914;2024-03-06T09:39:19;15.03;;;9.77;;
16197;SDS011;8206;51.440;6.914;2024-03-06T09:41:47;20.27;;;10.27;;
16197;SDS011;8206;51.440;6.914;2024-03-06T09:44:15;9.27;;;8.03;;
16197;SDS011;8206;51.440;6.914;2024-03-06T09:46:43;9.50;;;5.77;;
16197;SDS011;8206;51.440;6.914;2024-03-06T09:49:12;21.17;;;9.63;;
16197;SDS011;8206;51.440;6.914;2024-03-06T09:51:40;15.13;;;8.10;;
16197;SDS011;8206;51.440;6.914;2024-03-06T09:54:10;10.73;;;8.10;;
16197;SDS011;8206;51.440;6.914;2024-03-06T09:56:40;11.47;;;8.90;;
16197;SDS011;8206;51.440;6.914;2024-03-06T09:59:07;9.57;;;7.93;;
16197;SDS011;8206;51.440;6.914;2024-03-06T10:01:34;14.67;;;10.90;;
16197;SDS011;8206;51.440;6.914;2024-03-06T10:04:18;9.47;;;8.07;;
16197;SDS011;8206;51.440;6.914;2024-03-06T10:06:45;18.60;;;11.73;;
16197;SDS011;8206;51.440;6.914;2024-03-06T10:09:12;14.23;;;8.67;;
16197;SDS011;8206;51.440;6.914;2024-03-06T10:11:43;21.70;;;8.57;;
16197;SDS011;8206;51.440;6.914;2024-03-06T10:14:10;11.30;;;10.03;;
16197;SDS011;8206;51.440;6.914;2024-03-06T10:16:37;11.30;;;8.13;;
16197;SDS011;8206;51.440;6.914;2024-03-06T10:19:14;13.10;;;7.90;;
16197;SDS011;8206;51.440;6.914;2024-03-06T10:21:46;7.60;;;7.07;;
16197;SDS011;8206;51.440;6.914;2024-03-06T10:24:16;8.70;;;8.00;;
16197;SDS011;8206;51.440;6.914;2024-03-06T10:26:45;10.80;;;7.40;;
16197;SDS011;8206;51.440;6.914;2024-03-06T10:29:13;12.80;;;7.63;;
16197;SDS011;8206;51.440;6.914;2024-03-06T10:31:41;14.97;;;8.90;;
16197;SDS011;8206;51.440;6.914;2024-03-06T10:34:13;11.33;;;10.33;;
16197;SDS011;8206;51.440;6.914;2024-03-06T10:36:39;8.60;;;7.80;;
16197;SDS011;8206;51.440;6.914;2024-03-06T10:39:08;9.47;;;8.57;;
16197;SDS011;8206;51.440;6.914;2024-03-06T10:41:38;10.07;;;9.07;;
16197;SDS011;8206;51.440;6.914;2024-03-06T10:44:06;11.00;;;9.73;;
16197;SDS011;8206;51.440;6.914;2024-03-06T10:46:38;10.87;;;8.17;;
16197;SDS011;8206;51.440;6.914;2024-03-06T10:49:09;21.03;;;8.70;;
16197;SDS011;8206;51.440;6.914;2024-03-06T10:51:36;11.80;;;8.27;;
16197;SDS011;8206;51.440;6.914;2024-03-06T10:54:06;18.23;;;10.90;;
16197;SDS011;8206;51.440;6.914;2024-03-06T10:56:38;13.00;;;9.83;;
16197;SDS011;8206;51.440;6.914;2024-03-06T10:59:06;12.87;;;10.10;;
16197;SDS011;8206;51.440;6.914;2024-03-06T11:01:34;11.43;;;9.00;;
16197;SDS011;8206;51.440;6.914;2024-03-06T11:04:01;11.40;;;10.37;;
16197;SDS011;8206;51.440;6.914;2024-03-06T11:06:29;13.50;;;9.73;;
16197;SDS011;8206;51.440;6.914;2024-03-06T11:08:58;12.40;;;8.20;;
16197;SDS011;8206;51.440;6.914;2024-03-06T11:11:26;10.23;;;9.10;;
16197;SDS011;8206;51.440;6.914;2024-03-06T11:13:58;11.10;;;8.47;;
16197;SDS011;8206;51.440;6.914;2024-03-06T11:16:27;14.20;;;10.37;;
16197;SDS011;8206;51.440;6.914;2024-03-06T11:19:04;8.53;;;7.57;;
16197;SDS011;8206;51.440;6.914;2024-03-06T11:21:32;12.07;;;9.77;;
16197;SDS011;8206;51.440;6.914;2024-03-06T11:24:15;10.00;;;8.00;;
16197;SDS011;8206;51.440;6.914;2024-03-06T11:26:56;10.20;;;7.80;;
16197;SDS011;8206;51.440;6.914;2024-03-06T11:29:26;11.57;;;10.47;;
16197;SDS011;8206;51.440;6.914;2024-03-06T11:32:00;15.57;;;10.70;;
16197;SDS011;8206;51.440;6.914;2024-03-06T11:34:33;8.80;;;7.10;;
16197;SDS011;8206;51.440;6.914;2024-03-06T11:37:03;14.43;;;9.33;;
16197;SDS011;8206;51.440;6.914;2024-03-06T11:39:33;22.40;;;10.13;;
16197;SDS011;8206;51.440;6.914;2024-03-06T11:42:03;15.07;;;9.90;;
16197;SDS011;8206;51.440;6.914;2024-03-06T11:44:33;13.17;;;11.83;;
16197;SDS011;8206;51.440;6.914;2024-03-06T11:47:01;16.67;;;9.27;;
16197;SDS011;8206;51.440;6.914;2024-03-06T11:49:29;9.67;;;8.57;;
16197;SDS011;8206;51.440;6.914;2024-03-06T11:51:59;11.43;;;8.57;;
16197;SDS011;8206;51.440;6.914;2024-03-06T11:54:27;19.13;;;8.90;;
16197;SDS011;8206;51.440;6.914;2024-03-06T11:56:54;12.23;;;7.77;;
16197;SDS011;8206;51.440;6.914;2024-03-06T11:59:23;11.77;;;9.60;;
16197;SDS011;8206;51.440;6.914;2024-03-06T12:01:50;9.47;;;6.70;;
16197;SDS011;8206;51.440;6.914;2024-03-06T12:04:18;14.33;;;8.70;;
16197;SDS011;8206;51.440;6.914;2024-03-06T12:06:45;13.83;;;6.53;;
16197;SDS011;8206;51.440;6.914;2024-03-06T12:09:13;19.80;;;7.63;;
16197;SDS011;8206;51.440;6.914;2024-03-06T12:11:40;8.03;;;7.33;;
16197;SDS011;8206;51.440;6.914;2024-03-06T12:14:08;4.47;;;4.17;;
16197;SDS011;8206;51.440;6.914;2024-03-06T12:16:40;12.33;;;5.40;;
16197;SDS011;8206;51.440;6.914;2024-03-06T12:19:07;3.53;;;3.33;;
16197;SDS011;8206;51.440;6.914;2024-03-06T12:21:34;7.27;;;3.57;;
16197;SDS011;8206;51.440;6.914;2024-03-06T12:24:03;8.00;;;6.20;;
16197;SDS011;8206;51.440;6.914;2024-03-06T12:26:30;7.37;;;5.60;;
16197;SDS011;8206;51.440;6.914;2024-03-06T12:29:03;13.00;;;5.40;;
16197;SDS011;8206;51.440;6.914;2024-03-06T12:31:31;7.90;;;6.53;;
16197;SDS011;8206;51.440;6.914;2024-03-06T12:34:00;7.00;;;6.33;;
16197;SDS011;8206;51.440;6.914;2024-03-06T12:36:28;7.90;;;6.93;;
16197;SDS011;8206;51.440;6.914;2024-03-06T12:38:56;7.53;;;5.40;;
16197;SDS011;8206;51.440;6.914;2024-03-06T12:41:24;15.93;;;5.90;;
16197;SDS011;8206;51.440;6.914;2024-03-06T12:43:52;10.23;;;6.57;;
16197;SDS011;8206;51.440;6.914;2024-03-06T12:46:19;12.63;;;6.80;;
16197;SDS011;8206;51.440;6.914;2024-03-06T12:48:46;12.17;;;6.20;;
16197;SDS011;8206;51.440;6.914;2024-03-06T12:51:14;10.63;;;6.13;;
16197;SDS011;8206;51.440;6.914;2024-03-06T12:53:40;6.27;;;5.77;;
16197;SDS011;8206;51.440;6.914;2024-03-06T12:56:07;10.10;;;4.83;;
16197;SDS011;8206;51.440;6.914;2024-03-06T12:58:35;9.40;;;5.03;;
16197;SDS011;8206;51.440;6.914;2024-03-06T13:01:02;5.87;;;5.27;;
16197;SDS011;8206;51.440;6.914;2024-03-06T13:03:29;4.87;;;4.40;;
16197;SDS011;8206;51.440;6.914;2024-03-06T13:05:57;6.33;;;5.33;;
16197;SDS011;8206;51.440;6.914;2024-03-06T13:08:25;7.17;;;6.57;;
16197;SDS011;8206;51.440;6.914;2024-03-06T13:10:51;5.23;;;4.47;;
16197;SDS011;8206;51.440;6.914;2024-03-06T13:13:18;6.27;;;5.63;;
16197;SDS011;8206;51.440;6.914;2024-03-06T13:15:45;4.33;;;4.03;;
16197;SDS011;8206;51.440;6.914;2024-03-06T13:18:13;9.57;;;4.43;;
16197;SDS011;8206;51.440;6.914;2024-03-06T13:20:40;5.00;;;4.57;;
16197;SDS011;8206;51.440;6.914;2024-03-06T13:23:07;4.20;;;3.33;;
16197;SDS011;8206;51.440;6.914;2024-03-06T13:25:35;3.50;;;3.30;;
16197;SDS011;8206;51.440;6.914;2024-03-06T13:28:02;3.77;;;3.47;;
16197;SDS011;8206;51.440;6.914;2024-03-06T13:30:30;5.37;;;3.07;;
16197;SDS011;8206;51.440;6.914;2024-03-06T13:32:56;5.13;;;4.63;;
16197;SDS011;8206;51.440;6.914;2024-03-06T13:35:23;4.90;;;4.37;;
16197;SDS011;8206;51.440;6.914;2024-03-06T13:37:50;4.27;;;4.00;;
16197;SDS011;8206;51.440;6.914;2024-03-06T13:40:18;10.07;;;6.03;;
16197;SDS011;8206;51.440;6.914;2024-03-06T13:42:47;8.13;;;4.53;;
16197;SDS011;8206;51.440;6.914;2024-03-06T13:45:13;8.97;;;5.20;;
16197;SDS011;8206;51.440;6.914;2024-03-06T13:47:41;5.97;;;5.47;;
16197;SDS011;8206;51.440;6.914;2024-03-06T13:50:09;6.77;;;6.10;;
16197;SDS011;8206;51.440;6.914;2024-03-06T13:52:36;4.37;;;4.00;;
16197;SDS011;8206;51.440;6.914;2024-03-06T13:55:03;10.97;;;5.73;;
16197;SDS011;8206;51.440;6.914;2024-03-06T13:57:31;7.07;;;4.77;;
16197;SDS011;8206;51.440;6.914;2024-03-06T14:00:01;5.57;;;5.07;;
16197;SDS011;8206;51.440;6.914;2024-03-06T14:02:28;7.60;;;5.20;;
16197;SDS011;8206;51.440;6.914;2024-03-06T14:04:55;7.20;;;5.10;;
16197;SDS011;8206;51.440;6.914;2024-03-06T14:07:22;6.73;;;4.60;;
16197;SDS011;8206;51.440;6.914;2024-03-06T14:09:49;6.63;;;5.23;;
16197;SDS011;8206;51.440;6.914;2024-03-06T14:12:15;8.60;;;5.37;;
16197;SDS011;8206;51.440;6.914;2024-03-06T14:14:42;3.97;;;3.67;;
16197;SDS011;8206;51.440;6.914;2024-03-06T14:17:11;7.22;;;6.20;;
16197;SDS011;8206;51.440;6.914;2024-03-06T14:19:38;6.68;;;6.03;;
16197;SDS011;8206;51.440;6.914;2024-03-06T14:22:05;5.60;;;3.53;;
16197;SDS011;8206;51.440;6.914;2024-03-06T14:24:32;7.43;;;4.00;;
16197;SDS011;8206;51.440;6.914;2024-03-06T14:26:58;8.23;;;5.50;;
16197;SDS011;8206;51.440;6.914;2024-03-06T14:29:25;10.67;;;7.17;;
16197;SDS011;8206;51.440;6.914;2024-03-06T14:31:53;10.27;;;7.57;;
16197;SDS011;8206;51.440;6.914;2024-03-06T14:34:21;8.07;;;7.23;;
16197;SDS011;8206;51.440;6.914;2024-03-06T14:36:48;6.90;;;5.63;;
16197;SDS011;8206;51.440;6.914;2024-03-06T14:39:15;9.43;;;6.47;;
16197;SDS011;8206;51.440;6.914;2024-03-06T14:41:42;10.83;;;6.40;;
16197;SDS011;8206;51.440;6.914;2024-03-06T14:44:10;17.37;;;6.27;;
16197;SDS011;8206;51.440;6.914;2024-03-06T14:46:38;12.90;;;8.07;;
16197;SDS011;8206;51.440;6.914;2024-03-06T14:49:05;11.83;;;7.90;;
16197;SDS011;8206;51.440;6.914;2024-03-06T14:51:33;11.40;;;7.77;;
16197;SDS011;8206;51.440;6.914;2024-03-06T14:54:00;8.07;;;6.90;;
16197;SDS011;8206;51.440;6.914;2024-03-06T14:56:26;12.10;;;8.47;;
16197;SDS011;8206;51.440;6.914;2024-03-06T14:58:53;9.40;;;8.60;;